Time;durP1;ratioP1;P1;durP2;ratioP2;P2;SDS_P1;SDS_P2;PMS_P1;PMS_P2;Temp;Humidity;BMP_temperature;BMP_pressure;BME280_temperature;BME280_humidity;BME280_pressure;Samples;Min_cycle;Max_cycle;Signal;HPM_P1;HPM_P2
2023/04/08 08:13:48;;;;;;;16.92;9.43;;;;;;;7.63;83.61;96953.38;2091619;27;20605;-59
2023/04/08 08:14:53;;;;;;;15.15;9.20;;;;;;;8.10;83.52;96980.66;2090889;28;20832;-60
2023/04/08 08:19:42;;;;;;;18.88;10.70;;;;;;;8.60;80.22;96978.28;2087919;28;20597;-62
2023/04/08 08:20:44;;;;;;;18.08;10.23;;;;;;;8.84;79.96;96999.25;2089932;28;20757;-61
2023/04/08 08:21:45;;;;;;;17.30;9.70;;;;;;;8.89;79.60;96996.47;2087405;28;20797;-62
2023/04/08 08:22:47;;;;;;;15.65;9.85;;;;;;;8.91;79.63;97003.38;2083496;28;20199;-61
2023/04/08 08:23:58;;;;;;;17.25;10.55;;;;;;;8.90;79.53;96993.84;2081215;28;20200;-61
2023/04/08 08:24:59;;;;;;;16.90;10.55;;;;;;;8.91;79.90;96995.56;2080339;28;20241;-62
2023/04/08 08:46:57;;;;;;;42.65;20.52;;;;;;;8.83;78.50;97008.81;2082334;28;20568;-62
2023/04/08 08:48:00;;;;;;;16.98;9.82;;;;;;;8.92;77.95;97007.66;2074706;28;20198;-62
2023/04/08 08:49:01;;;;;;;19.88;11.15;;;;;;;9.33;77.39;97020.22;2075708;28;21058;-62
2023/04/08 08:50:03;;;;;;;22.05;12.55;;;;;;;9.67;75.60;97019.06;2076486;28;20196;-62
2023/04/08 08:51:10;;;;;;;22.77;11.38;;;;;;;9.96;74.88;97015.41;2074634;28;20202;-62
2023/04/08 08:52:16;;;;;;;18.23;11.10;;;;;;;9.87;74.91;97015.75;2076916;28;20228;-62
2023/04/08 08:53:22;;;;;;;23.85;10.55;;;;;;;9.63;75.21;97017.47;2074080;28;20197;-63
2023/04/08 08:54:23;;;;;;;16.30;10.55;;;;;;;10.25;73.79;97016.09;2076473;28;20672;-62
2023/04/08 08:55:24;;;;;;;19.30;11.93;;;;;;;10.62;72.69;97016.50;2076337;28;20244;-63
2023/04/08 08:56:47;;;;;;;21.92;13.90;;;;;;;10.27;70.86;97003.00;2076116;28;20308;-63
2023/04/08 08:57:50;;;;;;;20.17;11.10;;;;;;;10.06;71.17;97021.16;2078507;28;20193;-63
2023/04/08 08:58:51;;;;;;;42.50;21.38;;;;;;;10.28;71.56;97017.75;2076849;28;20197;-61
2023/04/08 08:59:53;;;;;;;15.75;9.65;;;;;;;10.16;71.03;97019.06;2079692;28;20203;-61
2023/04/08 09:00:55;;;;;;;21.42;11.18;;;;;;;10.29;71.01;97025.50;2079436;28;20438;-61
2023/04/08 09:01:56;;;;;;;17.20;10.15;;;;;;;10.32;70.04;97023.72;2078167;28;20238;-61
2023/04/08 09:03:16;;;;;;;21.25;9.73;;;;;;;10.39;70.40;97025.22;2075285;28;20698;-61
2023/04/08 09:04:21;;;;;;;16.25;9.20;;;;;;;10.98;68.62;97021.16;2075880;28;20196;-61
2023/04/08 09:05:23;;;;;;;20.80;9.90;;;;;;;11.10;68.11;97018.06;2074718;28;20304;-61
2023/04/08 09:06:25;;;;;;;15.30;9.75;;;;;;;10.94;68.78;97015.22;2077195;28;20261;-62
2023/04/08 09:07:28;;;;;;;18.13;10.30;;;;;;;11.57;68.84;97016.97;2075159;28;20229;-61
2023/04/08 09:08:36;;;;;;;18.70;10.38;;;;;;;12.04;68.57;97030.72;2076315;28;20553;-61
2023/04/08 09:09:51;;;;;;;19.45;10.48;;;;;;;12.06;66.81;97021.03;2084276;28;20290;-61
2023/04/08 09:10:54;;;;;;;17.67;10.00;;;;;;;12.11;65.97;97018.22;2082165;28;20572;-63
2023/04/08 09:12:03;;;;;;;13.48;9.20;;;;;;;12.30;65.22;97018.22;2078647;28;20243;-63
2023/04/08 09:13:04;;;;;;;18.85;9.52;;;;;;;12.32;65.18;97016.41;2078573;28;20202;-63
2023/04/08 09:14:25;;;;;;;24.40;13.50;;;;;;;11.88;64.48;97025.28;2077129;28;20243;-63
2023/04/08 09:15:26;;;;;;;55.28;30.65;;;;;;;11.79;65.56;97023.91;2076011;28;20235;-63
2023/04/08 09:16:29;;;;;;;38.60;25.73;;;;;;;11.54;65.34;97017.13;2075654;28;20285;-63
2023/04/08 09:17:38;;;;;;;19.23;13.25;;;;;;;11.36;65.80;97016.13;2076307;28;20738;-63
2023/04/08 09:18:43;;;;;;;21.10;12.80;;;;;;;11.58;65.76;97020.47;2074334;28;20204;-63
2023/04/08 09:20:10;;;;;;;19.90;11.15;;;;;;;11.45;65.62;97022.72;2074315;28;20715;-63
2023/04/08 09:21:13;;;;;;;15.85;9.93;;;;;;;11.61;66.12;97022.94;2075729;28;20203;-63
2023/04/08 09:22:15;;;;;;;18.30;11.50;;;;;;;11.69;65.99;97018.22;2080994;28;20450;-63
2023/04/08 09:23:16;;;;;;;25.05;16.25;;;;;;;11.60;65.62;97019.50;2079990;28;20224;-63
2023/04/08 09:24:29;;;;;;;19.05;12.05;;;;;;;11.75;66.01;97022.34;2077081;28;20228;-64
2023/04/08 09:25:32;;;;;;;15.43;10.20;;;;;;;11.52;66.55;97018.94;2076603;28;20200;-64
2023/04/08 09:26:36;;;;;;;22.88;11.48;;;;;;;11.46;66.62;97023.59;2075607;28;20213;-63
2023/04/08 09:27:37;;;;;;;18.98;9.60;;;;;;;11.94;65.88;97022.38;2074902;28;20302;-63
2023/04/08 09:28:40;;;;;;;15.10;9.80;;;;;;;11.87;65.34;97018.34;2076623;28;20200;-63
2023/04/08 09:29:42;;;;;;;16.80;10.75;;;;;;;12.01;64.23;97013.41;2077183;28;20192;-64
2023/04/08 09:30:43;;;;;;;14.18;8.93;;;;;;;12.21;64.61;97022.09;2073233;28;20208;-62
2023/04/08 09:31:46;;;;;;;17.13;10.85;;;;;;;12.25;64.33;97026.28;2071449;28;20216;-64
2023/04/08 09:32:50;;;;;;;20.92;10.60;;;;;;;12.69;63.76;97012.88;2078220;28;20268;-63
2023/04/08 09:34:09;;;;;;;14.40;9.65;;;;;;;13.04;63.20;97020.84;2078832;28;20201;-63
2023/04/08 09:35:10;;;;;;;17.42;10.60;;;;;;;12.61;63.22;97022.03;2075905;28;20196;-63
2023/04/08 09:36:12;;;;;;;16.40;10.82;;;;;;;12.96;62.08;97030.84;2076828;28;20255;-64
2023/04/08 09:37:14;;;;;;;22.88;10.48;;;;;;;12.86;61.58;97026.97;2075253;28;20228;-63
2023/04/08 09:38:16;;;;;;;18.13;9.77;;;;;;;12.82;60.95;97021.00;2080222;28;20583;-63
2023/04/08 09:39:18;;;;;;;19.10;10.80;;;;;;;12.94;60.28;97018.72;2077792;28;20271;-63
2023/04/08 09:40:20;;;;;;;22.23;11.48;;;;;;;12.83;60.23;97030.59;2077352;28;20246;-64
2023/04/08 09:41:23;;;;;;;19.73;11.32;;;;;;;12.60;59.83;97028.22;2076117;28;20196;-64
2023/04/08 09:42:25;;;;;;;14.32;9.60;;;;;;;13.20;59.80;97028.81;2075640;28;20283;-63
2023/04/08 09:43:26;;;;;;;17.52;10.75;;;;;;;12.75;61.30;97030.09;2078002;28;20242;-63
2023/04/08 09:44:30;;;;;;;15.25;10.40;;;;;;;12.83;60.92;97025.34;2077014;28;20702;-64
2023/04/08 09:45:35;;;;;;;17.35;10.45;;;;;;;12.47;62.53;97031.41;2077876;28;20200;-64
2023/04/08 09:46:49;;;;;;;17.48;11.13;;;;;;;13.22;59.63;97029.56;2078270;28;20236;-63
2023/04/08 09:47:57;;;;;;;17.33;10.93;;;;;;;13.13;57.19;97032.66;2078924;28;20271;-64
2023/04/08 09:49:28;;;;;;;15.57;10.50;;;;;;;13.41;58.18;97033.97;2076142;28;20655;-63
2023/04/08 09:50:39;;;;;;;16.17;10.55;;;;;;;13.82;56.54;97025.75;2064258;28;20297;-64
2023/04/08 09:52:06;;;;;;;20.40;11.30;;;;;;;14.19;54.46;97023.84;2077155;28;20198;-64
2023/04/08 09:53:14;;;;;;;16.40;10.90;;;;;;;13.53;55.46;97022.84;2074182;28;20228;-64
2023/04/08 09:54:22;;;;;;;16.55;9.65;;;;;;;13.87;55.89;97026.34;2077349;28;20871;-64
2023/04/08 09:55:26;;;;;;;19.27;11.63;;;;;;;13.80;55.52;97022.38;2079562;28;20704;-64
2023/04/08 09:56:40;;;;;;;16.27;10.98;;;;;;;13.96;56.40;97029.44;2077396;28;20196;-63
2023/04/08 09:57:45;;;;;;;16.67;10.38;;;;;;;14.09;56.38;97024.38;2073613;28;20235;-63
2023/04/08 09:59:08;;;;;;;14.57;10.15;;;;;;;14.59;55.23;97027.84;2068397;28;20212;-63
2023/04/08 10:00:16;;;;;;;16.50;9.43;;;;;;;14.65;54.64;97024.91;2070273;28;20202;-63
2023/04/08 10:01:25;;;;;;;13.93;9.98;;;;;;;15.02;54.22;97026.34;2071108;28;20233;-64
2023/04/08 10:02:32;;;;;;;15.27;10.15;;;;;;;15.21;53.44;97025.31;2066983;28;20222;-64
2023/04/08 10:03:39;;;;;;;18.23;10.77;;;;;;;15.55;53.39;97027.75;2071348;28;20677;-63
2023/04/08 10:04:47;;;;;;;19.25;11.90;;;;;;;15.33;52.66;97019.31;2072657;28;20197;-64
2023/04/08 10:05:52;;;;;;;15.40;10.07;;;;;;;14.95;52.19;97018.88;2072800;28;20582;-64
2023/04/08 10:06:57;;;;;;;16.70;11.10;;;;;;;14.91;52.02;97033.97;2069229;28;20195;-64
2023/04/08 10:08:00;;;;;;;13.75;9.52;;;;;;;14.81;52.46;97020.50;2072381;28;20212;-64
2023/04/08 10:09:03;;;;;;;16.50;11.77;;;;;;;14.96;52.65;97024.06;2071312;28;20198;-64
2023/04/08 10:10:06;;;;;;;13.38;9.63;;;;;;;14.63;53.59;97016.25;2070246;28;20205;-65
2023/04/08 10:11:08;;;;;;;80.85;47.55;;;;;;;14.42;53.86;97024.34;2068847;28;20252;-66
2023/04/08 10:12:09;;;;;;;42.90;26.52;;;;;;;14.35;53.39;97020.38;2068424;28;20273;-65
2023/04/08 10:13:11;;;;;;;29.38;18.77;;;;;;;14.24;54.12;97036.69;2071182;28;20665;-66
2023/04/08 10:14:12;;;;;;;20.10;12.35;;;;;;;14.30;54.80;97025.03;2068155;28;20793;-65
2023/04/08 10:15:35;;;;;;;16.38;10.23;;;;;;;14.04;55.35;97029.88;2071341;28;20201;-65
2023/04/08 10:16:37;;;;;;;15.65;9.68;;;;;;;13.94;53.34;97031.28;2070980;28;20327;-65
2023/04/08 10:17:39;;;;;;;15.27;9.68;;;;;;;14.07;53.40;97027.09;2070999;28;20305;-65
2023/04/08 10:18:41;;;;;;;15.60;9.50;;;;;;;13.85;54.12;97025.59;2070007;28;20759;-65
2023/04/08 10:19:43;;;;;;;15.38;9.85;;;;;;;13.74;53.87;97025.31;2070567;28;20203;-64
2023/04/08 10:20:48;;;;;;;15.13;9.35;;;;;;;13.55;53.94;97036.72;2075095;28;20731;-64
2023/04/08 10:21:49;;;;;;;16.52;10.60;;;;;;;13.28;53.83;97024.94;2072276;28;20202;-64
2023/04/08 10:22:51;;;;;;;18.70;11.18;;;;;;;13.02;55.78;97035.78;2070020;28;20197;-65
2023/04/08 10:23:55;;;;;;;21.10;10.90;;;;;;;13.02;56.30;97030.53;2068400;28;20217;-64
2023/04/08 10:25:15;;;;;;;15.00;10.57;;;;;;;13.19;56.17;97041.97;2066855;28;20194;-65
2023/04/08 10:26:33;;;;;;;18.35;11.77;;;;;;;13.32;55.05;97029.97;2071974;28;20201;-64
2023/04/08 10:27:41;;;;;;;19.80;11.27;;;;;;;13.46;55.20;97029.31;2070822;28;20228;-65
2023/04/08 10:28:42;;;;;;;16.33;11.02;;;;;;;13.19;56.87;97026.25;2068062;28;20750;-64
2023/04/08 10:29:45;;;;;;;17.45;10.77;;;;;;;13.40;56.88;97032.25;2068283;28;20246;-65
2023/04/08 10:30:50;;;;;;;21.25;10.95;;;;;;;13.21;57.08;97033.13;2069455;28;20206;-64
2023/04/08 10:31:51;;;;;;;20.25;11.20;;;;;;;13.30;56.20;97033.59;2068950;28;20198;-64
2023/04/08 10:32:59;;;;;;;17.90;11.30;;;;;;;13.34;56.48;97037.75;2071171;28;20289;-64
2023/04/08 10:34:17;;;;;;;16.60;10.45;;;;;;;12.76;56.81;97031.81;2072080;28;20848;-65
2023/04/08 10:35:34;;;;;;;16.55;10.00;;;;;;;12.97;57.10;97029.91;2068543;28;20202;-65
2023/04/08 10:36:36;;;;;;;16.83;10.48;;;;;;;13.19;57.85;97034.13;2068937;28;20229;-64
2023/04/08 10:37:38;;;;;;;20.45;11.38;;;;;;;13.39;56.91;97010.44;2070078;28;20242;-64
2023/04/08 10:38:41;;;;;;;17.67;10.40;;;;;;;13.13;56.92;97026.53;2070132;28;20210;-64
2023/04/08 10:39:48;;;;;;;15.30;9.52;;;;;;;13.27;56.68;97026.75;2072422;28;20237;-64
2023/04/08 10:40:50;;;;;;;13.77;9.93;;;;;;;12.53;56.55;97025.00;2070159;28;20197;-64
2023/04/08 10:41:51;;;;;;;16.63;11.05;;;;;;;12.67;56.20;97027.84;2071957;28;20206;-64
2023/04/08 10:42:54;;;;;;;16.55;10.60;;;;;;;12.62;56.47;97027.22;2071897;28;20200;-64
2023/04/08 10:43:56;;;;;;;15.18;9.95;;;;;;;12.93;57.00;97033.63;2069510;28;20236;-64
2023/04/08 10:44:59;;;;;;;13.57;10.23;;;;;;;12.99;56.02;97030.72;2066951;28;20194;-64
2023/04/08 10:46:01;;;;;;;22.33;11.50;;;;;;;13.03;56.66;97031.41;2072277;28;20290;-64
2023/04/08 10:47:02;;;;;;;16.33;10.13;;;;;;;13.08;56.81;97026.78;2069957;28;20874;-64
2023/04/08 10:48:17;;;;;;;15.23;9.75;;;;;;;13.21;56.45;97033.13;2073397;28;20205;-64
2023/04/08 10:49:19;;;;;;;13.75;10.25;;;;;;;13.29;56.28;97021.41;2069275;28;20715;-64
2023/04/08 10:50:22;;;;;;;13.27;8.82;;;;;;;12.79;57.41;97031.66;2068945;28;20203;-64
2023/04/08 10:51:23;;;;;;;19.77;11.65;;;;;;;12.60;56.69;97023.81;2067724;28;20206;-64
2023/04/08 10:52:26;;;;;;;17.98;10.50;;;;;;;12.61;57.15;97024.66;2066360;28;20222;-64
2023/04/08 10:53:29;;;;;;;13.10;10.23;;;;;;;12.54;58.51;97032.81;2066405;28;20210;-64
2023/04/08 10:54:31;;;;;;;15.93;9.95;;;;;;;12.59;57.81;97032.59;2071187;28;20665;-63
2023/04/08 10:55:33;;;;;;;15.95;10.30;;;;;;;12.47;57.34;97027.91;2073118;28;20206;-63
2023/04/08 10:56:42;;;;;;;14.93;9.40;;;;;;;12.12;57.71;97028.59;2072309;28;20208;-63
2023/04/08 10:57:43;;;;;;;14.32;10.07;;;;;;;12.06;56.57;97028.88;2076322;28;20220;-63
2023/04/08 10:58:55;;;;;;;15.93;10.40;;;;;;;11.67;56.19;97027.03;2077801;28;20232;-63
2023/04/08 10:59:56;;;;;;;18.35;11.18;;;;;;;11.38;56.09;97027.38;2068962;28;20263;-63
2023/04/08 11:01:07;;;;;;;20.15;11.23;;;;;;;11.72;58.04;97028.56;2070486;28;20628;-63
2023/04/08 11:02:13;;;;;;;13.90;9.52;;;;;;;11.95;57.36;97037.19;2066948;28;20228;-63
2023/04/08 11:03:15;;;;;;;16.70;10.63;;;;;;;11.81;56.58;97029.06;2065747;28;20294;-63
2023/04/08 11:04:18;;;;;;;20.95;9.93;;;;;;;11.90;56.74;97026.91;2066568;28;20198;-63
2023/04/08 11:05:22;;;;;;;15.55;8.95;;;;;;;11.81;58.67;97016.84;2071686;28;20204;-63
2023/04/08 11:06:24;;;;;;;13.95;10.15;;;;;;;11.62;57.31;97029.88;2071285;28;20209;-63
2023/04/08 11:07:26;;;;;;;19.15;11.68;;;;;;;11.71;56.97;97031.25;2070952;28;20222;-63
2023/04/08 11:08:31;;;;;;;16.90;10.80;;;;;;;11.40;57.80;97024.69;2068706;28;20204;-63
2023/04/08 11:09:33;;;;;;;14.90;10.13;;;;;;;11.31;58.47;97031.16;2071147;28;20197;-63
2023/04/08 11:10:37;;;;;;;16.10;10.80;;;;;;;11.31;59.12;97022.47;2072760;28;20197;-63
2023/04/08 11:11:44;;;;;;;15.73;11.10;;;;;;;11.28;59.51;97026.06;2068723;28;20236;-63
2023/04/08 11:12:45;;;;;;;16.63;10.13;;;;;;;11.36;59.48;97028.34;2068697;28;20228;-63
2023/04/08 11:13:47;;;;;;;24.27;10.63;;;;;;;11.48;59.05;97020.00;2068909;28;20194;-63
2023/04/08 11:14:54;;;;;;;20.75;11.05;;;;;;;11.53;59.03;97018.03;2068420;28;20195;-63
2023/04/08 11:15:58;;;;;;;20.02;10.85;;;;;;;11.59;57.79;97025.63;2071169;28;20201;-63
2023/04/08 11:17:01;;;;;;;15.15;11.07;;;;;;;11.52;58.07;97021.56;2070220;28;20197;-64
2023/04/08 11:18:04;;;;;;;15.70;10.35;;;;;;;11.46;59.46;97018.38;2069446;28;20379;-64
2023/04/08 11:19:06;;;;;;;16.23;9.95;;;;;;;11.52;58.77;97020.72;2068988;28;20205;-62
2023/04/08 11:20:08;;;;;;;14.07;10.20;;;;;;;11.70;57.68;97027.75;2073265;28;20259;-62
2023/04/08 11:21:10;;;;;;;14.60;10.48;;;;;;;11.58;57.00;97020.47;2070924;28;20229;-62
2023/04/08 11:22:12;;;;;;;16.77;10.10;;;;;;;11.58;57.46;97028.31;2072469;28;20282;-62
2023/04/08 11:23:13;;;;;;;21.95;10.82;;;;;;;11.46;57.52;97020.97;2069135;28;20281;-62
2023/04/08 11:24:15;;;;;;;13.60;9.38;;;;;;;11.25;58.70;97021.81;2072537;28;20198;-62
2023/04/08 11:25:17;;;;;;;13.45;9.10;;;;;;;11.20;58.69;97025.50;2071872;28;20650;-62
2023/04/08 11:26:19;;;;;;;16.98;9.75;;;;;;;11.10;59.03;97023.28;2068096;28;20318;-62
2023/04/08 11:49:51;;;;;;;14.15;10.07;;;;;;;11.01;59.18;97012.34;2080960;28;20560;-59
2023/04/08 11:51:11;;;;;;;15.15;9.60;;;;;;;11.17;57.68;97021.25;2082328;28;20848;-59
2023/04/08 11:52:13;;;;;;;19.95;9.63;;;;;;;11.09;57.09;97013.75;2078128;28;20231;-59
2023/04/08 11:53:17;;;;;;;15.95;9.70;;;;;;;11.27;57.42;97021.75;2073939;28;20208;-59
2023/04/08 11:54:26;;;;;;;19.00;9.88;;;;;;;11.24;56.60;97009.66;2074212;28;20208;-60
2023/04/08 11:55:30;;;;;;;16.23;10.43;;;;;;;11.00;55.69;97008.91;2073636;28;20254;-59
2023/04/08 11:56:48;;;;;;;14.60;9.48;;;;;;;10.62;57.22;97004.28;2075816;28;20201;-63
2023/04/08 11:57:51;;;;;;;15.55;9.95;;;;;;;10.77;57.66;97008.06;2071670;28;20296;-63
2023/04/08 11:58:53;;;;;;;17.17;10.13;;;;;;;10.70;57.43;97021.41;2074560;28;20208;-62
2023/04/08 11:59:54;;;;;;;16.77;10.43;;;;;;;10.90;57.95;97011.03;2073215;28;20200;-63
2023/04/08 12:57:55;;;;;;;15.77;9.95;;;;;;;11.02;58.26;97017.53;2100653;27;20887;-60
2023/04/08 13:00:06;;;;;;;14.15;9.73;;;;;;;11.10;57.47;97023.28;2083824;28;20555;-60
2023/04/08 13:01:08;;;;;;;17.48;10.77;;;;;;;10.94;57.14;97019.59;2078229;28;20194;-60
2023/04/08 13:02:09;;;;;;;18.10;10.38;;;;;;;10.94;57.61;97025.69;2079507;28;20242;-61
2023/04/08 13:03:12;;;;;;;15.95;10.00;;;;;;;11.01;57.33;97014.97;2077479;28;20265;-60
2023/04/08 13:04:14;;;;;;;12.85;9.38;;;;;;;11.18;57.57;97019.53;2081611;28;20264;-61
2023/04/08 13:05:16;;;;;;;19.23;10.27;;;;;;;11.25;56.81;97008.75;2078165;28;20199;-61
2023/04/08 13:06:21;;;;;;;18.45;11.00;;;;;;;11.38;56.79;97018.69;2078649;28;20228;-60
2023/04/08 13:07:23;;;;;;;42.70;25.80;;;;;;;11.47;56.46;97018.28;2078500;28;20367;-60
2023/04/08 13:08:24;;;;;;;80.97;44.72;;;;;;;11.60;56.35;97016.88;2077639;28;20196;-60
2023/04/08 13:09:26;;;;;;;25.25;15.55;;;;;;;11.47;55.77;97018.28;2077509;28;20216;-59
2023/04/08 13:10:28;;;;;;;45.42;26.63;;;;;;;11.60;55.66;97019.50;2077322;28;20199;-59
2023/04/08 13:11:29;;;;;;;16.55;10.75;;;;;;;11.47;54.84;97014.84;2078804;28;20197;-60
2023/04/08 13:12:31;;;;;;;17.63;9.90;;;;;;;11.30;55.12;97011.19;2079322;28;20228;-60
2023/04/08 13:13:33;;;;;;;15.00;9.60;;;;;;;11.30;54.92;97016.41;2078206;28;20556;-60
2023/04/08 13:14:34;;;;;;;14.75;8.52;;;;;;;11.33;55.25;97016.25;2078148;28;20231;-60
2023/04/08 13:15:36;;;;;;;15.20;9.70;;;;;;;11.53;54.75;97014.56;2076524;28;20210;-60
2023/04/08 13:16:38;;;;;;;16.48;10.20;;;;;;;11.50;56.25;97012.91;2079410;28;20235;-59
2023/04/08 13:17:39;;;;;;;12.63;9.07;;;;;;;11.46;54.96;97006.13;2077874;28;20228;-60
2023/04/08 13:18:41;;;;;;;16.08;9.80;;;;;;;11.63;54.66;97015.88;2079333;28;20616;-60
2023/04/08 13:19:43;;;;;;;14.70;10.00;;;;;;;11.74;54.75;97021.50;2077867;28;20220;-60
2023/04/08 13:20:44;;;;;;;15.73;10.20;;;;;;;11.98;54.35;97012.69;2079751;28;20196;-60
2023/04/08 13:21:46;;;;;;;12.35;8.57;;;;;;;12.23;53.51;97018.50;2076572;28;20197;-60
2023/04/08 13:22:47;;;;;;;14.15;9.90;;;;;;;12.11;52.76;97015.59;2077916;28;20193;-60
2023/04/08 13:23:49;;;;;;;13.73;9.50;;;;;;;12.04;52.01;97013.25;2079479;28;20331;-59
2023/04/08 13:24:50;;;;;;;12.55;9.50;;;;;;;11.89;52.99;97017.34;2078369;28;20197;-59
2023/04/08 13:25:52;;;;;;;12.68;8.65;;;;;;;11.75;53.55;97010.09;2079552;28;20216;-60
2023/04/08 13:26:53;;;;;;;13.30;8.88;;;;;;;11.90;53.73;97020.84;2086019;28;20235;-60
2023/04/08 13:27:55;;;;;;;17.20;9.50;;;;;;;12.19;53.14;97019.56;2085908;28;20211;-60
2023/04/08 13:28:56;;;;;;;14.52;9.50;;;;;;;12.07;52.43;97015.75;2078614;28;20620;-60
2023/04/08 13:29:59;;;;;;;15.35;8.77;;;;;;;11.89;52.94;97016.50;2075926;28;20196;-60
2023/04/08 13:31:00;;;;;;;15.00;9.95;;;;;;;11.74;53.05;97011.03;2078676;28;20208;-60
2023/04/08 13:32:01;;;;;;;13.00;9.55;;;;;;;11.88;53.94;97010.44;2078236;28;20798;-60
2023/04/08 13:33:03;;;;;;;11.98;8.13;;;;;;;12.08;54.16;97019.19;2078471;28;20201;-60
2023/04/08 13:34:05;;;;;;;11.63;8.60;;;;;;;11.89;54.17;97009.50;2080350;28;20201;-60
2023/04/08 13:35:07;;;;;;;15.48;9.35;;;;;;;11.89;53.78;97013.91;2077726;28;20193;-60
2023/04/08 13:36:08;;;;;;;14.48;8.93;;;;;;;11.93;53.95;97012.84;2078494;28;20197;-60
2023/04/08 13:37:10;;;;;;;12.77;8.73;;;;;;;12.19;53.71;97016.06;2077472;28;20217;-59
2023/04/08 13:38:11;;;;;;;12.50;9.55;;;;;;;12.17;53.28;97015.31;2078619;28;20235;-60
2023/04/08 13:39:13;;;;;;;13.85;9.32;;;;;;;12.13;52.62;97003.28;2078548;28;20228;-60
2023/04/08 13:40:14;;;;;;;14.60;9.88;;;;;;;12.09;53.22;97008.66;2076793;28;20212;-60
2023/04/08 13:41:16;;;;;;;16.95;8.90;;;;;;;11.89;53.63;97017.34;2077825;28;20235;-60
2023/04/08 13:42:17;;;;;;;20.92;10.38;;;;;;;11.73;54.33;97011.97;2078702;28;20224;-61
2023/04/08 13:43:19;;;;;;;14.45;8.90;;;;;;;11.82;54.21;97010.72;2078932;28;20227;-60
2023/04/08 13:44:20;;;;;;;13.70;8.10;;;;;;;11.70;54.66;97003.38;2077701;28;20200;-60
2023/04/08 13:45:22;;;;;;;15.65;10.02;;;;;;;11.72;54.09;97020.72;2077479;28;20197;-60
2023/04/08 13:46:23;;;;;;;15.60;10.27;;;;;;;11.65;53.94;97011.41;2077902;28;20204;-60
2023/04/08 13:47:25;;;;;;;14.30;9.85;;;;;;;11.72;54.48;97012.03;2078781;28;20583;-61
2023/04/08 13:48:27;;;;;;;13.55;8.55;;;;;;;11.53;54.83;97018.03;2077195;28;20745;-60
2023/04/08 13:49:28;;;;;;;12.85;9.18;;;;;;;11.73;54.93;97016.31;2077524;28;20207;-61
2023/04/08 13:50:30;;;;;;;17.70;10.40;;;;;;;11.86;53.92;97019.25;2077670;28;20239;-60
2023/04/08 13:51:31;;;;;;;15.32;10.07;;;;;;;11.87;53.51;97013.09;2078541;28;20572;-60
2023/04/08 13:52:33;;;;;;;14.18;9.80;;;;;;;11.82;54.15;97017.69;2078558;28;20231;-60
2023/04/08 13:53:35;;;;;;;17.38;9.80;;;;;;;11.88;54.09;97025.28;2077285;28;20204;-60
2023/04/08 13:54:36;;;;;;;15.10;8.40;;;;;;;11.92;53.27;97009.38;2077581;28;20205;-60
2023/04/08 13:55:38;;;;;;;16.38;9.20;;;;;;;11.84;53.44;97018.47;2077817;28;20197;-60
2023/04/08 13:56:39;;;;;;;14.23;9.98;;;;;;;11.77;54.00;97020.53;2077565;28;20652;-60
2023/04/08 13:57:41;;;;;;;13.63;10.02;;;;;;;11.84;54.64;97021.09;2078576;28;20236;-60
2023/04/08 13:58:42;;;;;;;16.33;9.25;;;;;;;11.80;54.25;97022.16;2079111;28;20534;-60
2023/04/08 13:59:46;;;;;;;15.50;9.95;;;;;;;11.89;54.74;97022.59;2075372;28;20727;-60
2023/04/08 14:00:48;;;;;;;13.98;9.73;;;;;;;11.75;54.07;97017.94;2078576;28;20193;-61
2023/04/08 14:01:52;;;;;;;14.45;9.77;;;;;;;11.98;54.27;97023.97;2077989;28;20251;-60
2023/04/08 14:02:54;;;;;;;13.30;8.55;;;;;;;11.78;54.32;97024.81;2085783;28;20291;-60
2023/04/08 14:03:56;;;;;;;12.07;8.90;;;;;;;11.74;54.75;97015.41;2086895;28;20286;-60
2023/04/08 14:04:57;;;;;;;19.83;8.95;;;;;;;11.87;54.95;97019.19;2076633;28;20394;-60
2023/04/08 14:05:59;;;;;;;16.25;7.68;;;;;;;11.93;55.24;97021.56;2078510;28;20202;-60
2023/04/08 14:07:02;;;;;;;14.32;8.90;;;;;;;11.85;55.07;97023.63;2078172;28;20244;-61
2023/04/08 14:08:03;;;;;;;12.82;8.82;;;;;;;11.81;55.20;97016.84;2079620;28;20891;-60
2023/04/08 14:09:05;;;;;;;13.70;7.53;;;;;;;11.76;55.01;97009.19;2080109;28;20194;-60
2023/04/08 14:10:07;;;;;;;13.00;8.88;;;;;;;11.66;55.05;97013.13;2077226;28;20277;-60
2023/04/08 14:11:09;;;;;;;12.70;8.85;;;;;;;11.70;55.79;97016.47;2074032;28;20760;-59
2023/04/08 14:12:10;;;;;;;11.45;7.95;;;;;;;11.81;54.64;97018.59;2073774;28;20664;-60
2023/04/08 14:13:12;;;;;;;12.15;8.50;;;;;;;11.67;54.81;97011.34;2073355;28;20189;-60
2023/04/08 14:14:13;;;;;;;13.75;9.35;;;;;;;11.28;54.94;97020.84;2072609;28;20228;-61
2023/04/08 14:15:15;;;;;;;13.10;9.57;;;;;;;11.09;55.16;97012.91;2071403;28;20221;-60
2023/04/08 14:16:16;;;;;;;12.98;8.90;;;;;;;11.32;55.52;97021.56;2072965;28;20232;-62
2023/04/08 14:17:18;;;;;;;12.05;8.80;;;;;;;11.30;55.45;97020.75;2074336;28;20228;-62
2023/04/08 14:18:19;;;;;;;15.43;9.90;;;;;;;11.42;55.49;97018.47;2082141;28;20294;-62
2023/04/08 14:19:21;;;;;;;14.40;9.30;;;;;;;11.07;55.69;97018.19;2080069;28;20197;-62
2023/04/08 14:20:22;;;;;;;13.02;9.05;;;;;;;11.27;55.29;97022.59;2071141;28;20688;-62
2023/04/08 14:21:24;;;;;;;13.60;7.70;;;;;;;11.29;55.14;97022.53;2072640;28;20235;-62
2023/04/08 14:22:26;;;;;;;16.67;10.20;;;;;;;11.44;55.73;97019.28;2072028;28;20225;-62
2023/04/08 14:23:27;;;;;;;13.77;8.85;;;;;;;11.44;55.32;97024.50;2072426;28;20208;-62
2023/04/08 14:24:29;;;;;;;12.77;8.15;;;;;;;11.64;53.96;97014.13;2071781;28;20192;-62
2023/04/08 14:25:31;;;;;;;19.05;9.07;;;;;;;11.50;54.35;97017.31;2075214;28;20211;-62
2023/04/08 14:26:34;;;;;;;12.98;8.88;;;;;;;11.46;53.97;97016.59;2075744;28;20556;-62
2023/04/08 14:27:36;;;;;;;12.88;8.95;;;;;;;11.64;54.64;97022.78;2072317;28;20438;-62
2023/04/08 14:28:55;;;;;;;13.68;9.20;;;;;;;11.80;54.14;97016.94;2074028;28;20207;-62
2023/04/08 14:29:57;;;;;;;12.60;8.85;;;;;;;11.42;54.17;97015.03;2071609;28;20799;-63
2023/04/08 14:30:58;;;;;;;14.15;9.30;;;;;;;11.33;55.00;97016.25;2071350;28;20192;-62
2023/04/08 14:32:00;;;;;;;18.65;9.13;;;;;;;11.14;54.78;97010.94;2073520;28;20658;-62
2023/04/08 14:33:01;;;;;;;12.57;9.05;;;;;;;11.46;55.40;97005.28;2072139;28;20293;-62
2023/04/08 14:34:03;;;;;;;10.93;7.60;;;;;;;11.91;54.45;97012.06;2072589;28;20236;-62
2023/04/08 14:35:05;;;;;;;15.45;10.50;;;;;;;11.79;54.00;97010.81;2071920;28;20605;-59
2023/04/08 14:36:09;;;;;;;17.85;10.60;;;;;;;11.97;53.35;97008.34;2073422;28;20216;-61
2023/04/08 14:37:11;;;;;;;15.02;8.80;;;;;;;12.13;53.53;97008.53;2072323;28;20213;-62
2023/04/08 14:38:13;;;;;;;14.98;9.20;;;;;;;12.48;53.17;97012.16;2074930;28;20233;-62
2023/04/08 14:39:14;;;;;;;16.95;10.15;;;;;;;12.65;52.93;97021.81;2074069;28;20212;-62
2023/04/08 14:40:16;;;;;;;12.80;9.40;;;;;;;12.80;52.73;97017.63;2072481;28;20827;-62
2023/04/08 14:41:17;;;;;;;13.93;9.20;;;;;;;13.19;51.41;97019.25;2075062;28;20197;-62
2023/04/08 14:42:19;;;;;;;16.08;9.27;;;;;;;13.25;51.55;97019.88;2071788;28;20765;-62
2023/04/08 14:43:21;;;;;;;14.23;8.57;;;;;;;13.79;50.51;96980.44;2072116;28;20201;-61
2023/04/08 14:44:22;;;;;;;12.10;8.45;;;;;;;13.84;50.62;97018.66;2073072;28;20205;-61
2023/04/08 14:45:24;;;;;;;11.90;8.35;;;;;;;13.64;50.30;97016.22;2070945;28;20205;-61
2023/04/08 14:46:26;;;;;;;17.65;9.15;;;;;;;14.16;49.90;97016.09;2072196;28;20233;-62
2023/04/08 14:47:29;;;;;;;39.35;22.15;;;;;;;14.40;49.83;97015.72;2070853;28;20351;-62
2023/04/08 14:48:30;;;;;;;19.30;13.57;;;;;;;13.89;49.47;97010.53;2072050;28;20194;-62
2023/04/08 14:49:32;;;;;;;21.13;13.90;;;;;;;14.24;48.14;97014.84;2070641;28;20732;-61
2023/04/08 14:50:33;;;;;;;18.08;11.13;;;;;;;14.73;47.92;97021.84;2071783;28;20280;-61
2023/04/08 14:51:36;;;;;;;14.75;8.63;;;;;;;14.90;47.46;97021.75;2073004;28;20198;-62
2023/04/08 14:52:38;;;;;;;13.35;9.25;;;;;;;14.89;46.29;97013.97;2079308;28;20225;-61
2023/04/08 14:53:39;;;;;;;15.50;8.15;;;;;;;15.07;45.98;97014.69;2075686;28;20750;-61
2023/04/08 14:54:42;;;;;;;12.50;8.32;;;;;;;15.61;45.90;97017.69;2073667;28;20283;-61